Decoded METAR Reports


Created by using MetarWeather

Station Name Location Elevation Time Temperature Dew Point RH Heat Index Wind Visibility Pressure Sky Condition Weather Remarks METAR
Alexandroupolis  40.85N 25.92E  3m  04/03/2015 23:20:00  4.0C  -1.0C  70%  N/A  7 km/h, N (360 degrees)  > 10000m  1024.0 mb           LGAL 042120Z 36004KT CAVOK 04/M01 Q1024 
Andravida (Civ/A  37.92N 21.27E  12m  04/03/2015 23:20:00  13.0C  10.0C  82%  N/A  9 km/h, SSE (150 degrees)  > 10000m  1022.0 mb  Few clouds at 610m
 
      LGAD 042120Z 15005KT 9999 FEW020 13/10 Q1022 
Araxos (Civ/Afb)  38.17N 21.42E  15m  04/03/2015 22:50:00  13.0C  12.0C  94%  N/A  6 km/h, Variable  > 10000m  1022.0 mb  Scattered clouds at 760m
 
      LGRX 042050Z VRB03KT 9999 SCT025 13/12 Q1022 
Athens/Elef-Ven  37.93N 23.95E  94m  04/03/2015 23:20:00  6.0C  2.0C  75%  N/A  6 km/h, WSW (240 degrees)  > 10000m  1024.0 mb  Few clouds at 910m
 
      LGAV 042120Z 24003KT 9999 FEW030 06/02 Q1024 NOSIG 
Chios Airport  38.32N 26.12E  4m  04/03/2015 22:50:00  9.0C  -1.0C  50%  N/A  Calm  > 10000m  1023.0 mb           LGHI 042050Z 00000KT CAVOK 09/M01 Q1023 
Elefsis (Hel-Afb  38.07N 23.55E  31m  04/03/2015 22:50:00  7.0C  4.0C  81%  N/A  7 km/h, NNW (330 degrees)  > 10000m  1024.0 mb           LGEL 042050Z 33004KT CAVOK 07/04 Q1024 
Ioannis Kapodist  39.60N 19.92E  2m  04/03/2015 23:20:00  15.0C  13.0C  88%  N/A  13 km/h, SE (140 degrees)  > 10000m  1019.0 mb  Few clouds at 520m
Scattered clouds at 910m
 
      LGKR 042120Z 14007KT 9999 FEW017 SCT030 15/13 Q1019 NOSIG 
Iraklion (Civ/Af  35.32N 25.17E  39m  04/03/2015 23:20:00  11.0C  9.0C  87%  N/A  7 km/h, S (190 degrees)  > 10000m  1023.0 mb  Scattered clouds at 760m
 
      LGIR 042120Z 19004KT 9999 SCT025 11/09 Q1023 NOSIG 
Kalamata (Hel-Af  37.07N 22.02E  8m  04/03/2015 22:50:00  11.0C  9.0C  87%  N/A  Calm  > 10000m  1022.0 mb  Few clouds at 1100m
Scattered clouds at 2400m
 
      LGKL 042050Z 00000KT 9999 FEW035 SCT080 11/09 Q1022 
Karpathos  35.42N 27.15E  20m  04/03/2015 19:50:00  15.0C  4.0C  48%  N/A  15 km/h, NNW (340 degrees)  > 10000m  1022.0 mb           LGKP 041750Z 34008KT 310V020 CAVOK 15/04 Q1022 
Kavala/Chrisoupo  40.92N 24.62E  5m  04/03/2015 22:50:00  7.0C  4.0C  81%  N/A  7 km/h, NNE (30 degrees)  > 10000m  1025.1 mb           LGKV 042050Z 03004KT CAVOK 07/04 Q1025 
Kefallinia  38.12N 20.50E  18m  04/03/2015 22:50:00  14.0C  12.0C  88%  N/A  11 km/h, SE (140 degrees)  > 10000m  1021.0 mb  Scattered clouds at 460m
Scattered clouds at 610m
 
      LGKF 042050Z 14006KT 9999 SCT015 SCT020 14/12 Q1021 
Kos Airport  36.80N 27.08E  130m  04/03/2015 22:50:00  12.0C  3.0C  54%  N/A  20 km/h, N (350 degrees)  > 10000m  1021.0 mb           LGKO 042050Z 35011KT CAVOK 12/03 Q1021 
Kozani (Civ/Army  40.28N 21.85E  630m  04/03/2015 23:20:00  4.0C  -2.0C  65%  N/A  2 km/h, Variable    1022.0 mb           LGKZ 042120Z AUTO VRB01KT //// // ////// 04/M02 Q1022 RE// 
Limnos Island Ar  39.92N 25.23E  5m  04/03/2015 23:20:00  4.0C  2.0C  87%  N/A  2 km/h, Variable    1024.0 mb           LGLM 042120Z AUTO VRB01KT //// // ////// 04/02 Q1024 RE// 
Mikonos Island  37.43N 25.35E  120m  04/03/2015 19:50:00  13.0C  7.0C  67%  N/A  7 km/h, NNE (30 degrees)  > 10000m  1023.0 mb  Few clouds at 550m
 
      LGMK 041750Z 03004KT 9999 FEW018 13/07 Q1023 
Mitilini  39.05N 26.60E  17m  04/03/2015 21:50:00  9.0C  2.0C  62%  N/A  Calm  > 10000m  1025.1 mb           LGMT 041950Z 00000KT CAVOK 09/02 Q1025 
Paros  37.00N 25.07E  36m  04/03/2015 23:20:00  10.0C  4.0C  66%  N/A  7 km/h, N (360 degrees)    1023.0 mb           LGPA 042120Z AUTO 36004KT 350V050 //// // ////// 10/04 Q1023 RE// 
Preveza/Aktion  38.62N 20.77E  4m  04/03/2015 22:50:00  15.0C  10.0C  72%  N/A  7 km/h, S (180 degrees)  > 10000m  1022.0 mb  Few clouds at 760m
Broken clouds at 3000m
 
      LGPZ 042050Z 18004KT 9999 FEW025 BKN100 15/10 Q1022 
Rhodes/Diagoras  36.40N 28.08E  5m  04/03/2015 23:20:00  15.0C  6.0C  55%  N/A  11 km/h, WNW (300 degrees)  > 10000m  1020.0 mb  Few clouds at 610m
 
      LGRP 042120Z 30006KT 260V330 9999 FEW020 15/06 Q1020 NOSIG 
Samos Airport  37.68N 26.92E  6m  04/03/2015 20:20:00  12.0C  5.0C  62%  N/A  13 km/h, NNW (340 degrees)  > 10000m  1023.0 mb           LGSM 041820Z 34007KT CAVOK 12/05 Q1023 
Santorini Island  36.40N 25.48E  40m  04/03/2015 23:20:00  13.0C  5.0C  58%  N/A  7 km/h, N (360 degrees)    1023.0 mb           LGSR 042120Z AUTO 36004KT 320V020 //// // ////// 13/05 Q1023 RE// 
Skiathos Island  39.18N 23.50E  15m  04/03/2015 13:50:00  13.0C  4.0C  54%  N/A    > 10000m  1026.1 mb  Few clouds at 610m
Scattered clouds at 910m
 
      LGSK 041150Z /////KT 9999 FEW020 SCT030 13/04 Q1026 
Souda/Khania (Af  35.47N 24.12E  150m  04/03/2015 23:20:00  13.0C  11.0C  88%  N/A  Calm  > 10000m  1022.0 mb  Few clouds at 550m
Scattered clouds at 760m
 
      LGSA 042120Z 00000KT 9999 FEW018 SCT025 13/11 Q1022 
Syros  37.42N 24.95E  72m  04/03/2015 23:20:00  10.0C  4.0C  66%  N/A  2 km/h, Variable    1023.0 mb           LGSO 042120Z AUTO VRB01KT //// // ////// 10/04 Q1023 RE// 
Thessaloniki/Mik  40.52N 22.97E  7m  04/03/2015 23:20:00  6.0C  2.0C  75%  N/A  9 km/h, ESE (110 degrees)  > 10000m  1024.0 mb           LGTS 042120Z 11005KT CAVOK 06/02 Q1024 NOSIG 
Zakinthos Airpor  37.75N 20.87E  3m  04/03/2015 23:20:00  14.0C  12.0C  88%  N/A  20 km/h, SSE (160 degrees)    1021.0 mb           LGZA 042120Z AUTO 16011KT //// // ////// 14/12 Q1021 RE//